Terminal Aerodrome Forecast
Issued by NWS Newport/Morehead City, NC

Home | Current Version | Previous Version | Graphics & Text | Print | Product List | Glossary On
Versions: 1 2 3 4 5 6 7 8 9 10 11 12 13 14 15 16 17 18 19 20 21 22 23
000
FTUS42 KMHX 151700 RRA
TAFEWN
TAF
KEWN 151742Z 1518/1618 VRB05KT P6SM OVC035
     FM152000 VRB03KT P6SM BKN040
     FM160700 00000KT 5SM BR BKN010
     FM161500 32004KT P6SM BKN035=

USA.gov is the U.S. government's official web portal to all federal, state and local government web resources and services.